Time;durP1;ratioP1;P1;durP2;ratioP2;P2;SDS_P1;SDS_P2;PMS_P1;PMS_P2;Temp;Humidity;BMP_temperature;BMP_pressure;BME280_temperature;BME280_humidity;BME280_pressure;Samples;Min_cycle;Max_cycle;Signal;HPM_P1;HPM_P2
2022/06/30 00:01:36;;;;;;;5.55;4.00;;;19.40;99.90;;;;;;5035393;28;20468;-89
2022/06/30 00:04:02;;;;;;;4.25;3.78;;;19.40;99.90;;;;;;5016311;28;20037;-88
2022/06/30 00:06:28;;;;;;;4.63;4.10;;;19.40;99.90;;;;;;5019113;28;20041;-88
2022/06/30 00:08:54;;;;;;;4.57;3.83;;;19.30;99.90;;;;;;5044553;28;20036;-89
2022/06/30 00:11:20;;;;;;;5.30;3.55;;;19.20;99.90;;;;;;5031044;28;20129;-89
2022/06/30 00:13:46;;;;;;;4.95;3.83;;;19.20;99.90;;;;;;5033845;28;20048;-90
2022/06/30 00:16:12;;;;;;;5.18;4.45;;;19.10;99.90;;;;;;5035965;28;20055;-89
2022/06/30 00:18:38;;;;;;;8.93;3.83;;;19.10;99.90;;;;;;5048952;28;20032;-89
2022/06/30 00:21:04;;;;;;;6.18;4.10;;;19.00;99.90;;;;;;5030030;28;20033;-89
2022/06/30 00:23:30;;;;;;;7.63;3.80;;;18.90;99.90;;;;;;5004470;28;20126;-90
2022/06/30 00:25:56;;;;;;;4.53;4.03;;;18.80;99.90;;;;;;5043580;28;20041;-88
2022/06/30 00:28:22;;;;;;;4.00;3.70;;;18.70;99.90;;;;;;5031462;28;20465;-89
2022/06/30 00:30:49;;;;;;;4.93;4.20;;;18.60;99.90;;;;;;5033143;28;20040;-88
2022/06/30 00:33:14;;;;;;;5.65;3.92;;;18.60;99.90;;;;;;5012073;28;20127;-88
2022/06/30 00:35:41;;;;;;;6.50;3.58;;;18.50;99.90;;;;;;5029765;28;20124;-87
2022/06/30 00:38:06;;;;;;;4.63;4.03;;;18.40;99.90;;;;;;5031269;28;20048;-87
2022/06/30 00:40:36;;;;;;;4.32;3.92;;;18.40;99.90;;;;;;5036190;28;20045;-87
2022/06/30 00:43:02;;;;;;;4.38;4.03;;;18.30;99.90;;;;;;5039895;28;20174;-89
2022/06/30 00:45:28;;;;;;;5.10;4.15;;;18.30;99.90;;;;;;5039211;28;20115;-89
2022/06/30 00:47:54;;;;;;;7.43;4.07;;;18.20;99.90;;;;;;5042687;28;20430;-88
2022/06/30 00:50:20;;;;;;;6.53;3.75;;;18.20;99.90;;;;;;5033232;28;20512;-87
2022/06/30 00:52:49;;;;;;;5.18;4.13;;;18.10;99.90;;;;;;5030312;28;20045;-88
2022/06/30 00:55:16;;;;;;;4.88;4.38;;;18.10;99.90;;;;;;5035572;28;20037;-89
2022/06/30 00:57:43;;;;;;;6.57;4.13;;;18.00;99.90;;;;;;5028498;28;20139;-88
2022/06/30 01:00:10;;;;;;;4.25;3.85;;;18.00;99.90;;;;;;5013339;28;20088;-88
2022/06/30 01:02:36;;;;;;;6.05;3.90;;;18.00;99.90;;;;;;5029378;28;20055;-88
2022/06/30 01:05:02;;;;;;;5.60;4.00;;;18.00;99.90;;;;;;5044387;28;20041;-87
2022/06/30 01:07:30;;;;;;;7.68;4.35;;;18.00;99.90;;;;;;5041608;28;20090;-87
2022/06/30 01:12:45;;;;;;;4.05;3.65;;;17.90;99.90;;;;;;5042177;28;20056;-87
2022/06/30 01:15:13;;;;;;;6.85;3.80;;;17.90;99.90;;;;;;5033315;28;20071;-88
2022/06/30 01:17:40;;;;;;;7.72;4.28;;;17.90;99.90;;;;;;5031183;28;20044;-88
2022/06/30 01:20:06;;;;;;;4.22;3.70;;;17.80;99.90;;;;;;5048943;28;20032;-89
2022/06/30 01:22:31;;;;;;;4.95;3.63;;;17.80;99.90;;;;;;5059290;28;20470;-88
2022/06/30 01:24:57;;;;;;;7.35;3.80;;;17.80;99.90;;;;;;5048628;28;20040;-90
2022/06/30 01:27:23;;;;;;;4.45;3.58;;;17.80;99.90;;;;;;5053236;28;20041;-89
2022/06/30 01:29:50;;;;;;;8.15;3.85;;;17.80;99.90;;;;;;5016818;28;20045;-88
2022/06/30 01:32:17;;;;;;;4.05;3.53;;;17.80;99.90;;;;;;5032199;28;20063;-89
2022/06/30 01:34:42;;;;;;;4.97;3.38;;;17.80;99.90;;;;;;5050003;28;20041;-89
2022/06/30 01:37:08;;;;;;;4.65;3.60;;;17.90;99.90;;;;;;5048374;28;20044;-90
2022/06/30 01:39:34;;;;;;;4.78;3.80;;;17.90;99.90;;;;;;5030141;28;20051;-89
2022/06/30 01:42:01;;;;;;;6.15;3.75;;;18.00;99.90;;;;;;5034950;28;20033;-90
2022/06/30 01:44:27;;;;;;;3.90;3.47;;;18.10;99.90;;;;;;5037904;28;20065;-89
2022/06/30 01:46:53;;;;;;;6.47;3.50;;;18.20;99.90;;;;;;5012520;28;20074;-88
2022/06/30 01:49:18;;;;;;;4.55;3.70;;;18.20;99.90;;;;;;5025522;28;20320;-90
2022/06/30 01:51:44;;;;;;;6.03;3.70;;;18.30;99.90;;;;;;5029964;28;20057;-88
2022/06/30 01:54:10;;;;;;;4.15;3.75;;;18.40;99.90;;;;;;5037921;28;20362;-87
2022/06/30 01:56:36;;;;;;;5.60;3.40;;;18.30;99.90;;;;;;5008685;28;20044;-90
2022/06/30 01:59:03;;;;;;;5.50;3.88;;;18.30;99.90;;;;;;5035747;28;20470;-89
2022/06/30 02:01:29;;;;;;;4.57;3.78;;;18.30;99.90;;;;;;5038137;28;20036;-88
2022/06/30 02:03:54;;;;;;;4.25;3.72;;;18.20;99.90;;;;;;5022377;28;20089;-89
2022/06/30 02:06:20;;;;;;;4.47;3.58;;;18.10;99.90;;;;;;5032588;28;20540;-88
2022/06/30 02:08:46;;;;;;;6.57;3.72;;;18.00;99.90;;;;;;5040718;28;20458;-89
2022/06/30 02:11:11;;;;;;;4.10;3.70;;;18.00;99.90;;;;;;5017755;28;20076;-88
2022/06/30 02:13:37;;;;;;;9.00;3.42;;;17.90;99.90;;;;;;5031846;28;20037;-88
2022/06/30 02:16:03;;;;;;;4.85;3.42;;;17.80;99.90;;;;;;5044652;28;20036;-89
2022/06/30 02:18:29;;;;;;;3.75;3.45;;;17.80;99.90;;;;;;5035301;28;20040;-89
2022/06/30 02:20:54;;;;;;;5.05;3.70;;;17.70;99.90;;;;;;5059361;28;20029;-89
2022/06/30 02:23:20;;;;;;;4.70;3.70;;;17.60;99.90;;;;;;5029282;28;20048;-88
2022/06/30 02:25:46;;;;;;;5.63;3.70;;;17.60;99.90;;;;;;5048053;28;20040;-88
2022/06/30 02:28:11;;;;;;;3.65;3.35;;;17.50;99.90;;;;;;5054778;28;20054;-88
2022/06/30 02:30:37;;;;;;;4.60;3.30;;;17.50;99.90;;;;;;5035175;28;20122;-89
2022/06/30 02:33:03;;;;;;;4.22;3.67;;;17.40;99.90;;;;;;5020869;28;20036;-91
2022/06/30 02:35:29;;;;;;;4.18;3.65;;;17.50;99.90;;;;;;5037638;28;20063;-88
2022/06/30 02:37:56;;;;;;;3.72;3.33;;;17.50;99.90;;;;;;5024491;28;20032;-88
2022/06/30 02:40:22;;;;;;;4.05;3.55;;;17.40;99.90;;;;;;5034626;28;20045;-89
2022/06/30 02:42:48;;;;;;;4.80;3.20;;;17.40;99.90;;;;;;5049827;28;20044;-89
2022/06/30 02:45:14;;;;;;;4.40;3.50;;;17.40;99.90;;;;;;5038511;28;20067;-88
2022/06/30 02:47:42;;;;;;;4.20;3.45;;;17.30;99.90;;;;;;5036364;28;20037;-88
2022/06/30 02:50:10;;;;;;;5.43;3.40;;;17.30;99.90;;;;;;5054295;28;20044;-88
2022/06/30 02:52:36;;;;;;;4.60;3.90;;;17.20;99.90;;;;;;5035125;28;20032;-88
2022/06/30 02:55:04;;;;;;;4.18;3.50;;;17.20;99.90;;;;;;5052239;28;20044;-90
2022/06/30 02:57:30;;;;;;;6.53;4.07;;;17.20;99.90;;;;;;5026547;28;20036;-88
2022/06/30 02:59:56;;;;;;;5.47;3.50;;;17.10;99.90;;;;;;5034955;28;20036;-88
2022/06/30 03:02:21;;;;;;;4.80;3.92;;;17.10;99.90;;;;;;5033174;28;20070;-88
2022/06/30 03:04:47;;;;;;;5.43;3.63;;;17.00;99.90;;;;;;5029384;28;20048;-88
2022/06/30 03:07:13;;;;;;;5.85;3.70;;;17.00;99.90;;;;;;5019997;28;20044;-87
2022/06/30 03:09:39;;;;;;;4.28;3.88;;;17.00;99.90;;;;;;5035510;28;20056;-88
2022/06/30 03:12:05;;;;;;;6.80;3.65;;;17.00;99.90;;;;;;5031391;28;20031;-88
2022/06/30 03:14:31;;;;;;;6.88;4.13;;;16.90;99.90;;;;;;5009697;28;20048;-86
2022/06/30 03:16:57;;;;;;;5.40;3.60;;;16.90;99.90;;;;;;5039993;28;20377;-89
2022/06/30 03:19:22;;;;;;;4.72;4.20;;;16.90;99.90;;;;;;5045538;28;20537;-89
2022/06/30 03:21:49;;;;;;;5.90;4.35;;;16.80;99.90;;;;;;5050879;28;20110;-88
2022/06/30 03:24:14;;;;;;;6.60;4.10;;;16.80;99.90;;;;;;5019391;28;20520;-89
2022/06/30 03:26:40;;;;;;;5.18;4.68;;;16.90;99.90;;;;;;5018933;28;20036;-87
2022/06/30 03:29:06;;;;;;;5.18;4.43;;;16.90;99.90;;;;;;5037151;28;20074;-87
2022/06/30 03:31:32;;;;;;;5.05;4.50;;;16.80;99.90;;;;;;5022306;28;21276;-87
2022/06/30 03:33:58;;;;;;;4.88;4.30;;;16.80;99.90;;;;;;5034954;28;20152;-88
2022/06/30 03:36:24;;;;;;;4.55;4.15;;;16.80;99.90;;;;;;5023438;28;20099;-87
2022/06/30 03:38:50;;;;;;;5.43;4.00;;;16.80;99.90;;;;;;5052872;28;20036;-87
2022/06/30 03:41:16;;;;;;;4.68;3.80;;;16.70;99.90;;;;;;5035892;28;20040;-87
2022/06/30 03:43:42;;;;;;;4.88;4.38;;;16.70;99.90;;;;;;5034741;28;20051;-87
2022/06/30 03:46:08;;;;;;;7.30;4.35;;;16.70;99.90;;;;;;5003579;28;20037;-86
2022/06/30 03:48:35;;;;;;;4.68;4.25;;;16.70;99.90;;;;;;5043833;28;20049;-88
2022/06/30 03:51:02;;;;;;;4.30;3.90;;;16.70;99.90;;;;;;5028707;28;20055;-87
2022/06/30 03:53:29;;;;;;;4.68;4.28;;;16.60;99.90;;;;;;5039835;28;20677;-87
2022/06/30 03:55:57;;;;;;;5.95;4.65;;;16.60;99.90;;;;;;5052428;28;20047;-86
2022/06/30 03:58:23;;;;;;;5.28;3.90;;;16.60;99.90;;;;;;5012402;28;20442;-86
2022/06/30 04:00:49;;;;;;;6.05;4.60;;;16.60;99.90;;;;;;5036455;28;20123;-87
2022/06/30 04:03:15;;;;;;;6.00;4.13;;;16.60;99.90;;;;;;5038225;28;20124;-90
2022/06/30 04:05:40;;;;;;;4.47;4.07;;;16.60;99.90;;;;;;5035510;28;20040;-87
2022/06/30 04:08:07;;;;;;;5.75;4.35;;;16.70;99.90;;;;;;5020523;28;20151;-86
2022/06/30 04:10:33;;;;;;;7.10;4.45;;;16.70;99.90;;;;;;5020630;28;20531;-87
2022/06/30 04:12:59;;;;;;;6.55;4.10;;;16.80;99.90;;;;;;5037562;28;20067;-88
2022/06/30 04:15:25;;;;;;;5.45;4.10;;;16.80;99.90;;;;;;5018118;28;20052;-87
2022/06/30 04:17:50;;;;;;;4.80;4.30;;;16.90;99.90;;;;;;5022860;28;20036;-87
2022/06/30 04:20:16;;;;;;;4.68;3.63;;;16.90;99.90;;;;;;5017783;28;20055;-90
2022/06/30 04:22:47;;;;;;;5.00;4.50;;;17.00;99.90;;;;;;5020568;28;20044;-88
2022/06/30 04:25:13;;;;;;;4.75;4.05;;;17.00;99.90;;;;;;5040678;28;20474;-88
2022/06/30 04:27:53;;;;;;;4.75;4.28;;;17.00;99.90;;;;;;5032392;28;20040;-88
2022/06/30 04:33:05;;;;;;;8.48;4.32;;;17.00;99.90;;;;;;5066195;28;20045;-88
2022/06/30 04:35:30;;;;;;;6.03;4.68;;;17.10;99.90;;;;;;5046074;28;20069;-88
2022/06/30 04:37:58;;;;;;;4.53;4.13;;;17.10;99.90;;;;;;5032304;28;20064;-87
2022/06/30 04:43:08;;;;;;;5.25;4.75;;;17.10;99.90;;;;;;5053255;28;20131;-88
2022/06/30 04:45:34;;;;;;;7.28;4.82;;;17.20;99.90;;;;;;5040134;28;20127;-88
2022/06/30 04:48:03;;;;;;;5.88;4.47;;;17.20;99.90;;;;;;5024402;28;20040;-87
2022/06/30 04:50:29;;;;;;;5.35;4.63;;;17.20;99.90;;;;;;5016437;28;20056;-87
2022/06/30 04:52:55;;;;;;;7.85;4.70;;;17.30;99.90;;;;;;5052864;28;20037;-86
2022/06/30 04:55:20;;;;;;;5.65;5.15;;;17.30;99.90;;;;;;5037775;28;20092;-90
2022/06/30 04:57:46;;;;;;;6.35;5.13;;;17.40;99.90;;;;;;5055197;28;20043;-87
2022/06/30 05:00:12;;;;;;;7.00;5.35;;;17.40;99.90;;;;;;5030959;28;20045;-88
2022/06/30 05:02:38;;;;;;;5.78;5.15;;;17.50;99.90;;;;;;5056323;28;20521;-89
2022/06/30 05:05:04;;;;;;;5.93;4.97;;;17.50;99.90;;;;;;5037929;28;20040;-88
2022/06/30 05:07:29;;;;;;;9.27;5.40;;;17.60;99.90;;;;;;5038806;28;20143;-89
2022/06/30 05:09:55;;;;;;;5.28;4.78;;;17.60;99.90;;;;;;5045033;28;20124;-89
2022/06/30 05:12:21;;;;;;;6.10;4.82;;;17.60;99.90;;;;;;5006767;28;20094;-89
2022/06/30 05:14:49;;;;;;;5.55;5.05;;;17.70;99.90;;;;;;5039969;28;20051;-86
2022/06/30 05:17:15;;;;;;;5.10;4.63;;;17.70;99.90;;;;;;5041269;28;20041;-86
2022/06/30 05:19:41;;;;;;;8.52;4.97;;;17.70;99.90;;;;;;5030461;28;20039;-90
2022/06/30 05:22:07;;;;;;;9.75;5.80;;;17.80;99.90;;;;;;5039931;28;20484;-87
2022/06/30 05:27:17;;;;;;;7.30;5.10;;;17.80;99.90;;;;;;5035854;28;20052;-91
2022/06/30 05:29:43;;;;;;;8.60;5.25;;;17.80;99.90;;;;;;5036792;28;20373;-88
2022/06/30 05:32:09;;;;;;;8.07;5.03;;;17.90;99.90;;;;;;5045258;28;20063;-90
2022/06/30 05:34:35;;;;;;;5.57;5.00;;;18.00;99.90;;;;;;5060507;28;20045;-90
2022/06/30 05:37:02;;;;;;;8.07;5.18;;;18.00;99.90;;;;;;5039609;28;20052;-89
2022/06/30 05:39:28;;;;;;;8.45;6.13;;;18.10;99.90;;;;;;5024015;28;20105;-94
2022/06/30 05:41:57;;;;;;;5.93;5.25;;;18.20;99.90;;;;;;5001750;28;20469;-91
2022/06/30 05:44:33;;;;;;;5.97;4.68;;;18.20;99.90;;;;;;5023875;28;20041;-92
2022/06/30 05:47:01;;;;;;;7.20;4.88;;;18.30;99.90;;;;;;5037055;28;20037;-92
2022/06/30 05:49:29;;;;;;;7.95;5.55;;;18.40;99.90;;;;;;5040685;28;20504;-92
2022/06/30 05:51:57;;;;;;;8.65;5.00;;;18.40;99.90;;;;;;5039685;28;20131;-91
2022/06/30 05:54:28;;;;;;;8.07;6.80;;;18.50;99.90;;;;;;5050609;28;20056;-91
2022/06/30 05:56:59;;;;;;;7.75;5.10;;;18.60;99.90;;;;;;5032913;28;20090;-91
2022/06/30 06:00:05;;;;;;;5.68;5.10;;;18.70;99.90;;;;;;5055362;28;20070;-91
2022/06/30 06:02:30;;;;;;;9.98;7.30;;;18.80;99.90;;;;;;5036482;28;20041;-90
2022/06/30 06:04:56;;;;;;;7.18;5.00;;;18.80;99.90;;;;;;5043781;28;20063;-87
2022/06/30 06:07:22;;;;;;;6.40;5.80;;;18.90;99.90;;;;;;5038745;28;20128;-87
2022/06/30 06:09:48;;;;;;;8.35;6.78;;;19.00;99.90;;;;;;5057665;28;20041;-89
2022/06/30 06:12:13;;;;;;;6.55;5.95;;;19.00;99.90;;;;;;5033940;28;20084;-88
2022/06/30 06:14:39;;;;;;;6.63;5.95;;;19.10;99.90;;;;;;5027598;28;20049;-89
2022/06/30 06:17:07;;;;;;;8.85;7.10;;;19.20;99.90;;;;;;5018987;28;20119;-90
2022/06/30 06:19:33;;;;;;;6.95;4.95;;;19.30;99.90;;;;;;5029462;28;20195;-90
2022/06/30 06:22:01;;;;;;;7.53;5.32;;;19.50;99.90;;;;;;5053002;28;20127;-89
2022/06/30 06:24:32;;;;;;;9.05;5.05;;;19.60;99.90;;;;;;5034825;28;20041;-89
2022/06/30 06:27:00;;;;;;;7.30;5.35;;;19.90;99.90;;;;;;5035211;28;20115;-89
2022/06/30 06:29:31;;;;;;;6.30;5.38;;;20.10;99.90;;;;;;5048658;28;20497;-88
2022/06/30 06:32:03;;;;;;;10.10;5.30;;;20.50;99.90;;;;;;5027599;28;20040;-90
2022/06/30 06:34:29;;;;;;;7.55;4.93;;;20.70;99.90;;;;;;5055633;28;20048;-90
2022/06/30 06:36:54;;;;;;;7.10;4.88;;;20.90;99.90;;;;;;5038783;28;20040;-89
2022/06/30 06:39:23;;;;;;;12.43;9.05;;;21.20;99.90;;;;;;5038712;28;20064;-88
2022/06/30 06:41:48;;;;;;;11.93;6.95;;;21.40;99.90;;;;;;5020416;28;20047;-89
2022/06/30 06:44:14;;;;;;;6.75;5.20;;;21.60;99.90;;;;;;5042669;28;20040;-90
2022/06/30 06:46:40;;;;;;;7.10;5.40;;;21.90;99.90;;;;;;5045967;28;20048;-87
2022/06/30 06:49:20;;;;;;;5.95;4.88;;;22.10;99.90;;;;;;5028746;28;20059;-86
2022/06/30 06:51:50;;;;;;;5.22;4.28;;;22.40;99.90;;;;;;5053924;28;20477;-85
2022/06/30 06:54:24;;;;;;;5.68;5.18;;;22.60;99.90;;;;;;5024908;28;20143;-85
2022/06/30 06:56:52;;;;;;;5.15;4.65;;;22.80;99.90;;;;;;5042675;28;20041;-86
2022/06/30 06:59:20;;;;;;;5.13;4.63;;;23.10;99.90;;;;;;5032717;28;20048;-86
2022/06/30 07:01:51;;;;;;;6.53;4.78;;;23.30;99.90;;;;;;5018978;28;20037;-87
2022/06/30 07:04:29;;;;;;;;;;;;;;;;;;;;;
2022/06/30 07:07:02;;;;;;;7.55;4.88;;;23.80;99.90;;;;;;5038215;28;20508;-86
2022/06/30 07:09:30;;;;;;;4.70;3.78;;;24.00;99.90;;;;;;5038843;28;20075;-87
2022/06/30 07:12:02;;;;;;;6.15;4.72;;;24.20;99.90;;;;;;5037968;28;20104;-87
2022/06/30 07:14:30;;;;;;;6.03;4.40;;;24.30;99.90;;;;;;5054968;28;20040;-87
2022/06/30 07:16:58;;;;;;;9.50;7.80;;;24.60;99.90;;;;;;5038241;28;20430;-86
2022/06/30 07:19:24;;;;;;;8.90;4.40;;;24.80;99.90;;;;;;5038048;28;20076;-86
2022/06/30 07:21:52;;;;;;;5.55;3.85;;;25.00;99.10;;;;;;5030152;28;20072;-86
2022/06/30 07:24:21;;;;;;;5.50;4.28;;;25.30;97.80;;;;;;5029831;28;20104;-87
2022/06/30 07:26:52;;;;;;;9.13;3.80;;;25.60;95.50;;;;;;5053359;28;20036;-86
2022/06/30 07:29:30;;;;;;;5.75;4.15;;;25.70;93.80;;;;;;5034606;28;20048;-89
2022/06/30 07:32:03;;;;;;;11.73;4.13;;;25.90;92.00;;;;;;5019223;28;20040;-87
2022/06/30 07:34:31;;;;;;;7.03;4.00;;;26.10;91.00;;;;;;5036051;28;20048;-86
2022/06/30 07:36:57;;;;;;;11.93;4.35;;;26.30;88.40;;;;;;5039072;28;20040;-86
2022/06/30 07:39:23;;;;;;;4.68;4.10;;;26.50;86.80;;;;;;5023560;28;20435;-87
2022/06/30 07:41:51;;;;;;;9.23;4.20;;;26.70;84.80;;;;;;5045918;28;20517;-86
2022/06/30 07:44:22;;;;;;;6.80;4.50;;;26.90;82.60;;;;;;5031674;28;20064;-88
2022/06/30 07:46:51;;;;;;;5.10;3.90;;;27.20;79.40;;;;;;5034737;28;20080;-86
2022/06/30 07:49:22;;;;;;;4.63;4.20;;;27.30;79.60;;;;;;5054896;28;20146;-89
2022/06/30 07:51:52;;;;;;;5.97;4.40;;;27.60;78.50;;;;;;5045174;28;20057;-87
2022/06/30 07:54:21;;;;;;;8.32;4.32;;;27.80;77.00;;;;;;5003091;28;20067;-87
2022/06/30 07:56:47;;;;;;;4.80;4.10;;;28.10;75.20;;;;;;5031108;28;20037;-87
2022/06/30 07:59:13;;;;;;;6.78;4.20;;;28.40;72.00;;;;;;5037883;28;20047;-87
2022/06/30 08:01:39;;;;;;;5.70;3.55;;;28.60;72.90;;;;;;5033782;28;20099;-87
2022/06/30 08:04:05;;;;;;;8.93;4.63;;;28.80;70.80;;;;;;5038663;28;20056;-87
2022/06/30 08:06:30;;;;;;;4.60;4.00;;;29.00;68.20;;;;;;5036818;28;20123;-88
2022/06/30 08:08:57;;;;;;;4.95;4.03;;;29.20;68.20;;;;;;5000218;28;20119;-87
2022/06/30 08:11:23;;;;;;;4.45;3.63;;;29.50;67.40;;;;;;5053028;28;20045;-89
2022/06/30 08:13:51;;;;;;;7.32;4.35;;;29.70;67.30;;;;;;5043396;28;20185;-88
2022/06/30 08:16:22;;;;;;;4.20;3.80;;;30.10;65.40;;;;;;5033346;28;20476;-91
2022/06/30 08:18:48;;;;;;;7.20;4.20;;;30.40;63.70;;;;;;5025520;28;20153;-88
2022/06/30 08:21:13;;;;;;;4.65;4.25;;;30.60;61.70;;;;;;5049034;28;20489;-87
2022/06/30 08:23:41;;;;;;;4.70;4.03;;;30.70;61.60;;;;;;5028878;28;20042;-87
2022/06/30 08:26:15;;;;;;;6.10;5.03;;;31.00;60.40;;;;;;5040990;28;20044;-90
2022/06/30 08:28:40;;;;;;;5.60;4.35;;;31.30;57.70;;;;;;5058569;28;20494;-90
2022/06/30 08:31:11;;;;;;;4.95;4.28;;;31.40;56.00;;;;;;5028342;28;20076;-90
2022/06/30 08:33:45;;;;;;;5.05;4.63;;;31.50;56.40;;;;;;5034695;28;20123;-89
2022/06/30 08:36:13;;;;;;;5.25;4.85;;;31.80;56.00;;;;;;5026416;28;20128;-89
2022/06/30 08:38:39;;;;;;;5.50;4.57;;;32.20;55.10;;;;;;5037476;28;20041;-87
2022/06/30 08:43:49;;;;;;;5.55;5.05;;;32.50;52.50;;;;;;5052904;28;20138;-91
2022/06/30 08:46:18;;;;;;;7.72;6.30;;;32.50;52.80;;;;;;5014013;28;20496;-89
2022/06/30 08:48:44;;;;;;;5.30;4.80;;;32.70;52.00;;;;;;5057472;28;20424;-88
2022/06/30 08:51:14;;;;;;;8.32;5.43;;;32.90;51.20;;;;;;5032208;28;20064;-88
2022/06/30 08:53:45;;;;;;;7.10;5.07;;;33.10;51.10;;;;;;5021501;28;20049;-87
2022/06/30 08:56:13;;;;;;;7.80;5.25;;;33.30;51.10;;;;;;5026054;28;20063;-88
2022/06/30 08:58:40;;;;;;;6.30;5.70;;;33.70;49.90;;;;;;5047254;28;20068;-87
2022/06/30 09:01:06;;;;;;;7.07;5.47;;;33.90;49.40;;;;;;5008215;28;20128;-88
2022/06/30 09:03:34;;;;;;;7.70;5.00;;;34.10;47.90;;;;;;5053156;28;20131;-87
2022/06/30 09:06:00;;;;;;;7.90;5.80;;;34.40;47.40;;;;;;5018642;28;20359;-89
2022/06/30 09:08:28;;;;;;;13.82;6.07;;;34.70;46.50;;;;;;5049001;28;20033;-89
2022/06/30 09:10:55;;;;;;;6.60;6.00;;;34.80;46.00;;;;;;5029397;28;20560;-89
2022/06/30 09:13:21;;;;;;;8.02;5.88;;;35.00;45.20;;;;;;5031288;28;20069;-88
2022/06/30 09:15:49;;;;;;;9.43;6.38;;;35.20;44.70;;;;;;5021627;28;20562;-88
2022/06/30 09:18:28;;;;;;;9.20;7.15;;;35.40;44.00;;;;;;5047437;28;20045;-89
2022/06/30 09:20:55;;;;;;;12.85;7.65;;;35.50;43.30;;;;;;5045809;28;20477;-89
2022/06/30 09:23:31;;;;;;;10.35;6.30;;;35.50;42.40;;;;;;5037216;28;20033;-90
2022/06/30 09:25:59;;;;;;;8.32;6.53;;;35.70;43.00;;;;;;5017012;28;20041;-89
2022/06/30 09:28:47;;;;;;;14.50;6.88;;;36.00;42.30;;;;;;5037998;28;20094;-89
2022/06/30 09:31:29;;;;;;;6.70;6.10;;;36.30;42.10;;;;;;5025590;28;20490;-89
2022/06/30 09:33:55;;;;;;;6.90;6.18;;;36.50;41.20;;;;;;5039380;28;20045;-91
2022/06/30 09:36:27;;;;;;;7.22;6.53;;;36.80;41.00;;;;;;5030785;28;20429;-89
2022/06/30 09:38:59;;;;;;;8.50;7.10;;;37.10;39.80;;;;;;5046870;28;20367;-90
2022/06/30 09:41:27;;;;;;;5.97;5.30;;;37.00;39.00;;;;;;5046073;28;20496;-88
2022/06/30 09:43:53;;;;;;;6.47;5.85;;;36.90;39.90;;;;;;5037717;28;20041;-89
2022/06/30 09:46:18;;;;;;;6.88;6.10;;;37.10;39.60;;;;;;5036566;28;20059;-89
2022/06/30 09:48:44;;;;;;;6.13;5.63;;;37.40;38.80;;;;;;5025120;28;20038;-89
2022/06/30 09:51:10;;;;;;;6.47;5.78;;;37.70;37.70;;;;;;5010397;28;20046;-90
2022/06/30 09:53:36;;;;;;;7.28;6.60;;;37.60;37.20;;;;;;4988079;28;20107;-90
2022/06/30 09:56:12;;;;;;;8.20;5.82;;;37.60;36.80;;;;;;5013090;28;20029;-87
2022/06/30 09:58:42;;;;;;;7.93;5.80;;;37.80;37.10;;;;;;5007698;28;20048;-88
2022/06/30 10:01:09;;;;;;;7.97;6.20;;;38.10;36.30;;;;;;5029356;28;20549;-88
2022/06/30 10:03:48;;;;;;;5.65;5.15;;;38.40;36.00;;;;;;5012233;28;20041;-88
2022/06/30 10:06:15;;;;;;;7.20;6.60;;;38.70;36.50;;;;;;5035553;28;20045;-86
2022/06/30 10:08:42;;;;;;;19.02;6.50;;;38.80;35.40;;;;;;5015394;28;20120;-87
2022/06/30 10:11:09;;;;;;;32.80;7.20;;;39.20;34.70;;;;;;5020743;28;20041;-87
2022/06/30 10:13:36;;;;;;;8.73;5.85;;;39.60;33.40;;;;;;5024502;28;20073;-87
2022/06/30 10:16:05;;;;;;;7.22;6.28;;;39.40;33.40;;;;;;5027841;28;20041;-87
2022/06/30 10:18:36;;;;;;;6.43;5.55;;;38.30;33.70;;;;;;5016472;28;20479;-88
2022/06/30 10:21:02;;;;;;;6.50;5.90;;;37.20;35.80;;;;;;5015525;28;20441;-88
2022/06/30 10:23:28;;;;;;;6.93;6.20;;;36.00;37.50;;;;;;5022250;28;20045;-88
2022/06/30 10:25:54;;;;;;;7.93;7.15;;;34.90;39.50;;;;;;5030027;28;20474;-87
2022/06/30 10:28:22;;;;;;;8.60;7.80;;;33.70;41.10;;;;;;5008518;28;20053;-87
2022/06/30 10:31:15;;;;;;;8.70;6.60;;;33.20;42.00;;;;;;5019600;28;20050;-87
2022/06/30 10:33:57;;;;;;;7.15;6.30;;;33.80;42.20;;;;;;5005710;28;20029;-87
2022/06/30 10:36:30;;;;;;;7.03;6.38;;;34.70;40.20;;;;;;5015343;28;20051;-84
2022/06/30 10:39:11;;;;;;;8.68;6.28;;;35.10;39.40;;;;;;5017630;28;20080;-84
2022/06/30 10:41:44;;;;;;;7.55;6.75;;;34.50;40.50;;;;;;5015090;28;20739;-84
2022/06/30 10:44:12;;;;;;;7.63;6.93;;;34.10;41.10;;;;;;5002391;28;20037;-84
2022/06/30 10:46:44;;;;;;;8.20;7.40;;;33.90;41.20;;;;;;5017990;28;20056;-84
2022/06/30 10:49:12;;;;;;;7.15;6.20;;;33.20;42.20;;;;;;5017013;28;20474;-85
2022/06/30 10:51:38;;;;;;;6.53;5.78;;;33.80;43.60;;;;;;5032681;28;20049;-86
2022/06/30 10:54:04;;;;;;;7.47;6.75;;;35.00;42.30;;;;;;5046885;28;20487;-85
2022/06/30 10:56:48;;;;;;;7.22;6.18;;;35.40;40.50;;;;;;5029588;28;20095;-85
2022/06/30 10:59:14;;;;;;;5.22;4.70;;;36.40;39.90;;;;;;5038266;28;20490;-87
2022/06/30 11:02:13;;;;;;;5.03;4.38;;;37.10;35.70;;;;;;5027702;28;20407;-87
2022/06/30 11:04:50;;;;;;;3.95;3.40;;;36.90;31.80;;;;;;5031164;28;20049;-88
2022/06/30 11:07:24;;;;;;;4.07;3.75;;;35.80;34.50;;;;;;5051575;28;20489;-87
2022/06/30 11:09:55;;;;;;;4.72;3.97;;;35.20;35.50;;;;;;5017836;28;20043;-87
2022/06/30 11:12:31;;;;;;;7.35;4.10;;;34.60;37.00;;;;;;5028863;28;20045;-87
2022/06/30 11:14:58;;;;;;;3.97;3.67;;;33.60;38.50;;;;;;5035632;28;20435;-86
2022/06/30 11:17:26;;;;;;;5.78;3.22;;;32.90;39.80;;;;;;5029291;28;20067;-87
2022/06/30 11:20:21;;;;;;;6.07;3.78;;;32.50;39.60;;;;;;5017149;28;20063;-87
2022/06/30 11:22:54;;;;;;;5.80;4.00;;;32.20;41.00;;;;;;5018340;28;20505;-87
2022/06/30 11:28:15;;;;;;;;;;;33.20;39.80;;;;;;5034686;28;20485;-87
2022/06/30 11:30:42;;;;;;;7.63;4.50;;;33.80;40.50;;;;;;5032841;28;19924;-87
2022/06/30 11:33:08;;;;;;;7.07;3.83;;;34.90;38.80;;;;;;5048159;28;20052;-81
2022/06/30 11:35:34;;;;;;;7.53;3.55;;;35.50;37.40;;;;;;5050844;28;20041;-87
2022/06/30 11:38:06;;;;;;;4.53;2.72;;;35.60;34.90;;;;;;5049788;28;20037;-88
2022/06/30 11:40:33;;;;;;;4.22;2.88;;;35.80;33.30;;;;;;5034150;28;20029;-86
2022/06/30 11:43:01;;;;;;;3.45;3.15;;;36.20;32.80;;;;;;5038240;28;20415;-89
2022/06/30 11:45:30;;;;;;;5.82;4.20;;;36.60;34.00;;;;;;5033266;28;20127;-87
2022/06/30 11:48:03;;;;;;;5.80;4.30;;;36.20;34.10;;;;;;5034053;28;20139;-86
2022/06/30 11:50:31;;;;;;;5.40;4.47;;;35.00;36.60;;;;;;5036316;28;20069;-86
2022/06/30 11:53:08;;;;;;;4.45;4.05;;;35.20;37.10;;;;;;5032486;28;20048;-88
2022/06/30 11:55:37;;;;;;;6.45;3.80;;;35.60;36.30;;;;;;5019099;28;20095;-87
2022/06/30 11:58:03;;;;;;;6.13;3.90;;;36.20;36.00;;;;;;5016480;28;20041;-87
2022/06/30 12:00:33;;;;;;;5.78;4.05;;;36.90;33.90;;;;;;5021090;28;20107;-87
2022/06/30 12:03:02;;;;;;;4.15;3.60;;;37.30;33.00;;;;;;5031326;28;20064;-87
2022/06/30 12:05:43;;;;;;;4.38;3.67;;;37.90;33.80;;;;;;5032453;28;20126;-87
2022/06/30 12:08:22;;;;;;;4.57;3.65;;;38.80;32.90;;;;;;5022188;28;20044;-90
2022/06/30 12:10:50;;;;;;;5.57;3.60;;;39.00;30.90;;;;;;5017190;28;20124;-87
2022/06/30 12:13:24;;;;;;;6.97;4.15;;;38.60;31.10;;;;;;5034471;28;20391;-88
2022/06/30 12:15:55;;;;;;;4.82;3.50;;;38.50;30.20;;;;;;5035691;28;20044;-87
2022/06/30 12:18:26;;;;;;;5.15;3.40;;;38.70;30.20;;;;;;5035048;28;20103;-89
2022/06/30 12:21:25;;;;;;;;;;;;;;;;;;;;;
2022/06/30 12:24:00;;;;;;;5.97;3.22;;;39.30;29.60;;;;;;5043645;28;20038;-87
2022/06/30 12:26:44;;;;;;;4.32;3.53;;;39.60;28.80;;;;;;5032901;28;20072;-88
2022/06/30 12:29:12;;;;;;;6.88;3.03;;;39.80;28.10;;;;;;5042050;28;20108;-88
2022/06/30 12:31:43;;;;;;;3.65;3.35;;;40.00;27.90;;;;;;5044127;28;20049;-87
2022/06/30 12:34:14;;;;;;;4.78;3.10;;;40.20;27.70;;;;;;5022067;28;20047;-87
2022/06/30 12:36:55;;;;;;;5.45;3.67;;;40.10;26.80;;;;;;5033658;28;20041;-87
2022/06/30 12:39:21;;;;;;;8.25;3.40;;;40.00;27.50;;;;;;5032528;28;20493;-87
2022/06/30 12:42:01;;;;;;;7.95;3.10;;;40.00;27.70;;;;;;5031182;28;20037;-88
2022/06/30 12:44:46;;;;;;;;;;;;;;;;;;;;;
2022/06/30 12:47:17;;;;;;;6.38;3.80;;;38.60;28.40;;;;;;5044626;28;20047;-90
2022/06/30 12:50:02;;;;;;;5.60;3.65;;;37.20;29.40;;;;;;5038077;28;20119;-88
2022/06/30 12:52:32;;;;;;;4.90;3.67;;;36.40;30.90;;;;;;4991511;28;20057;-87
2022/06/30 12:55:01;;;;;;;6.78;3.47;;;35.90;30.80;;;;;;5018707;28;20051;-89
2022/06/30 12:57:48;;;;;;;;;;;;;;;;;;;;;
2022/06/30 13:00:34;;;;;;;4.38;2.70;;;36.70;29.80;;;;;;5003608;28;20048;-88
2022/06/30 13:03:13;;;;;;;4.68;2.80;;;37.50;29.10;;;;;;5016346;28;20068;-89
2022/06/30 13:05:44;;;;;;;5.97;3.13;;;37.60;28.40;;;;;;5010949;28;20129;-88
2022/06/30 13:08:22;;;;;;;5.32;2.65;;;37.70;28.10;;;;;;5016768;28;20055;-88
2022/06/30 13:11:11;;;;;;;5.22;2.80;;;37.80;28.70;;;;;;5001329;28;20034;-88
2022/06/30 13:13:56;;;;;;;3.75;2.25;;;38.10;27.70;;;;;;5017760;28;20137;-89
2022/06/30 13:16:32;;;;;;;;;;;;;;;;;;;;;
2022/06/30 13:19:06;;;;;;;3.50;2.20;;;38.50;27.00;;;;;;5028531;28;20052;-87